Time;durP1;ratioP1;P1;durP2;ratioP2;P2;SDS_P1;SDS_P2;PMS_P1;PMS_P2;Temp;Humidity;BMP_temperature;BMP_pressure;BME280_temperature;BME280_humidity;BME280_pressure;Samples;Min_cycle;Max_cycle;Signal;HPM_P1;HPM_P2
2024/02/07 00:00:59;;;;;;;8.68;1.20;;;4.90;99.90;;;;;;4953182;28;20456;-70
2024/02/07 00:03:25;;;;;;;12.73;2.03;;;4.90;99.90;;;;;;4953897;29;20397;-72
2024/02/07 00:05:50;;;;;;;16.15;1.40;;;4.90;99.90;;;;;;4952482;28;20031;-69
2024/02/07 00:08:16;;;;;;;9.18;0.98;;;5.00;99.90;;;;;;4952752;29;20028;-71
2024/02/07 00:10:42;;;;;;;9.18;1.00;;;4.90;99.90;;;;;;4953835;29;20066;-70
2024/02/07 00:13:08;;;;;;;12.40;1.17;;;4.90;99.90;;;;;;4953232;28;20032;-69
2024/02/07 00:15:33;;;;;;;10.32;1.10;;;5.00;99.90;;;;;;4953559;29;20489;-69
2024/02/07 00:17:59;;;;;;;12.85;1.70;;;5.00;99.90;;;;;;4951995;28;20083;-69
2024/02/07 00:20:24;;;;;;;11.32;1.30;;;4.90;99.90;;;;;;4953295;28;20034;-68
2024/02/07 00:22:50;;;;;;;12.50;1.38;;;4.90;99.90;;;;;;4952407;28;20050;-71
2024/02/07 00:25:16;;;;;;;13.30;1.58;;;5.00;99.90;;;;;;4935950;29;20024;-71
2024/02/07 00:27:41;;;;;;;11.02;1.15;;;4.90;99.90;;;;;;4952197;28;20034;-70
2024/02/07 00:30:07;;;;;;;9.70;1.33;;;5.00;99.90;;;;;;4951958;28;20043;-69
2024/02/07 00:32:33;;;;;;;6.25;0.80;;;4.90;99.90;;;;;;4952835;28;20536;-71
2024/02/07 00:34:59;;;;;;;15.25;1.38;;;4.90;99.90;;;;;;4951073;29;20118;-70
2024/02/07 00:37:24;;;;;;;9.93;1.13;;;5.00;99.90;;;;;;4952072;28;20029;-70
2024/02/07 00:39:50;;;;;;;13.30;1.08;;;5.00;99.90;;;;;;4952614;28;20035;-69
2024/02/07 00:42:16;;;;;;;11.38;1.20;;;4.90;99.90;;;;;;4951538;29;20091;-71
2024/02/07 00:44:42;;;;;;;15.57;1.25;;;5.00;99.90;;;;;;4934700;29;20044;-72
2024/02/07 00:47:08;;;;;;;12.60;1.83;;;4.90;99.90;;;;;;4935142;29;20035;-73
2024/02/07 00:49:33;;;;;;;11.88;1.92;;;5.00;99.90;;;;;;4933324;29;20485;-71
2024/02/07 00:51:59;;;;;;;13.05;1.65;;;5.00;99.90;;;;;;4951014;28;20027;-72
2024/02/07 00:54:24;;;;;;;9.35;1.25;;;5.00;99.90;;;;;;4954762;28;20091;-70
2024/02/07 00:56:54;;;;;;;13.88;1.88;;;5.00;99.90;;;;;;4954877;29;20032;-72
2024/02/07 00:59:19;;;;;;;15.50;2.00;;;5.10;99.90;;;;;;4954868;29;20042;-72
2024/02/07 01:01:45;;;;;;;13.73;1.30;;;5.10;99.90;;;;;;4940048;29;20035;-72
2024/02/07 01:04:11;;;;;;;10.45;1.30;;;5.00;99.90;;;;;;4939634;29;20046;-70
2024/02/07 01:06:38;;;;;;;11.90;1.02;;;5.10;99.90;;;;;;4955015;28;20392;-72
2024/02/07 01:09:04;;;;;;;12.95;1.52;;;5.10;99.90;;;;;;4955235;28;20135;-71
2024/02/07 01:11:30;;;;;;;13.98;1.30;;;5.10;99.90;;;;;;4954840;28;20022;-71
2024/02/07 01:13:56;;;;;;;14.70;2.42;;;5.10;99.90;;;;;;4956947;28;20035;-70
2024/02/07 01:16:21;;;;;;;16.83;2.00;;;5.10;99.90;;;;;;4939694;29;20028;-71
2024/02/07 01:18:47;;;;;;;11.05;1.52;;;5.10;99.90;;;;;;4956441;29;20039;-73
2024/02/07 01:21:12;;;;;;;10.80;2.17;;;5.10;99.90;;;;;;4956623;29;20067;-71
2024/02/07 01:23:43;;;;;;;13.77;1.70;;;5.10;99.90;;;;;;4939316;28;20050;-72
2024/02/07 01:26:08;;;;;;;11.07;1.75;;;5.10;99.90;;;;;;4955808;28;20044;-72
2024/02/07 01:28:34;;;;;;;13.70;1.45;;;5.10;99.90;;;;;;4939275;29;20031;-71
2024/02/07 01:31:00;;;;;;;12.50;1.85;;;5.10;99.90;;;;;;4939439;28;20035;-72
2024/02/07 01:33:25;;;;;;;11.52;1.38;;;5.10;99.90;;;;;;4956083;29;20038;-72
2024/02/07 01:35:51;;;;;;;13.48;2.17;;;5.10;99.90;;;;;;4956624;28;20079;-72
2024/02/07 01:38:20;;;;;;;15.68;2.00;;;5.10;99.90;;;;;;4956517;28;20074;-72
2024/02/07 01:40:46;;;;;;;17.95;2.08;;;5.10;99.90;;;;;;4956063;28;20031;-72
2024/02/07 01:43:12;;;;;;;9.20;1.40;;;5.10;99.90;;;;;;4955975;29;20032;-71
2024/02/07 01:45:39;;;;;;;19.38;2.10;;;5.10;99.90;;;;;;4956000;28;20086;-71
2024/02/07 01:48:06;;;;;;;23.45;2.35;;;5.10;99.90;;;;;;4953795;28;20019;-72
2024/02/07 01:50:34;;;;;;;19.48;2.80;;;5.20;99.90;;;;;;4937508;29;20548;-71
2024/02/07 01:53:02;;;;;;;21.85;2.22;;;5.20;99.90;;;;;;4937966;29;20027;-71
2024/02/07 01:55:28;;;;;;;12.73;1.67;;;5.20;99.90;;;;;;4938748;29;20019;-72
2024/02/07 01:57:55;;;;;;;23.10;1.50;;;5.20;99.90;;;;;;4954898;29;21803;-72
2024/02/07 02:00:24;;;;;;;12.43;1.80;;;5.20;99.90;;;;;;4955407;28;20028;-71
2024/02/07 02:02:52;;;;;;;14.65;1.45;;;5.20;99.90;;;;;;4954829;28;20027;-72
2024/02/07 02:05:18;;;;;;;16.67;1.38;;;5.20;99.90;;;;;;4955805;28;20032;-72
2024/02/07 02:07:45;;;;;;;18.30;1.77;;;5.20;99.90;;;;;;4954591;28;21169;-72
2024/02/07 02:10:11;;;;;;;17.30;1.77;;;5.20;99.90;;;;;;4955802;28;20075;-72
2024/02/07 02:12:37;;;;;;;17.95;1.90;;;5.20;99.90;;;;;;4954783;28;20027;-71
2024/02/07 02:15:05;;;;;;;21.60;2.15;;;5.20;99.90;;;;;;4937528;28;20034;-72
2024/02/07 02:17:31;;;;;;;24.60;2.75;;;5.20;99.90;;;;;;4938066;28;20019;-73
2024/02/07 02:19:57;;;;;;;18.65;2.15;;;5.20;99.90;;;;;;4955498;28;20042;-72
2024/02/07 02:22:46;;;;;;;22.30;2.10;;;5.10;99.90;;;;;;4952437;28;20031;-73
2024/02/07 02:25:38;;;;;;;15.45;2.20;;;5.20;99.90;;;;;;4938129;28;20067;-72
2024/02/07 02:28:04;;;;;;;18.65;2.38;;;5.20;99.90;;;;;;4954249;28;20019;-73
2024/02/07 02:30:33;;;;;;;18.05;1.77;;;5.20;99.90;;;;;;4954897;28;20030;-73
2024/02/07 02:33:09;;;;;;;15.57;1.80;;;5.20;99.90;;;;;;4955359;29;20020;-72
2024/02/07 02:35:38;;;;;;;18.40;1.92;;;5.20;99.90;;;;;;4954897;28;20035;-72
2024/02/07 02:38:05;;;;;;;15.77;2.25;;;5.30;99.90;;;;;;4954524;28;20036;-73
2024/02/07 02:40:31;;;;;;;25.30;2.50;;;5.20;99.90;;;;;;4937824;29;20540;-74
2024/02/07 02:42:58;;;;;;;24.35;2.55;;;5.10;99.90;;;;;;4937142;29;20039;-73
2024/02/07 02:45:24;;;;;;;26.20;2.35;;;5.20;99.90;;;;;;4954289;28;20047;-74
2024/02/07 02:47:50;;;;;;;22.23;2.75;;;5.20;99.90;;;;;;4938093;29;20031;-73
2024/02/07 02:50:16;;;;;;;19.52;2.00;;;5.20;99.90;;;;;;4952765;29;20030;-74
2024/02/07 02:52:42;;;;;;;30.98;2.90;;;5.20;99.90;;;;;;4935853;29;20448;-72
2024/02/07 02:55:11;;;;;;;17.17;2.40;;;5.20;99.90;;;;;;4954647;28;20031;-71
2024/02/07 02:57:36;;;;;;;16.00;1.90;;;5.20;99.90;;;;;;4954374;28;20023;-73
2024/02/07 03:00:07;;;;;;;19.92;1.92;;;5.30;99.90;;;;;;4954626;28;20023;-70
2024/02/07 03:02:33;;;;;;;15.60;2.03;;;5.30;99.90;;;;;;4954988;28;20051;-70
2024/02/07 03:05:00;;;;;;;12.48;1.73;;;5.30;99.90;;;;;;4936713;29;20041;-73
2024/02/07 03:10:10;;;;;;;;;;;5.30;99.90;;;;;;4954603;28;20162;-71
2024/02/07 03:12:37;;;;;;;23.88;2.92;;;5.20;99.90;;;;;;4954482;28;20312;-71
2024/02/07 03:15:03;;;;;;;29.08;2.88;;;5.30;99.90;;;;;;4953851;28;20468;-72
2024/02/07 03:17:28;;;;;;;26.77;3.38;;;5.30;99.90;;;;;;4953850;28;20027;-72
2024/02/07 03:19:54;;;;;;;20.27;2.40;;;5.30;99.90;;;;;;4953168;28;20517;-73
2024/02/07 03:22:19;;;;;;;20.52;2.40;;;5.20;99.90;;;;;;4937014;29;20034;-72
2024/02/07 03:24:45;;;;;;;28.83;2.72;;;5.30;99.90;;;;;;4954184;28;20070;-75
2024/02/07 03:27:11;;;;;;;22.25;3.55;;;5.30;99.90;;;;;;4954408;28;20057;-70
2024/02/07 03:29:37;;;;;;;18.17;2.38;;;5.30;99.90;;;;;;4954269;28;20033;-72
2024/02/07 03:32:03;;;;;;;24.92;3.38;;;5.30;99.90;;;;;;4936704;29;20035;-71
2024/02/07 03:34:30;;;;;;;27.05;2.75;;;5.30;99.90;;;;;;4954471;28;20091;-72
2024/02/07 03:36:56;;;;;;;27.65;2.55;;;5.30;99.90;;;;;;4953973;29;20024;-71
2024/02/07 03:39:22;;;;;;;25.95;2.80;;;5.30;99.90;;;;;;4954048;29;20023;-72
2024/02/07 03:41:48;;;;;;;30.88;2.65;;;5.30;99.90;;;;;;4936878;28;20028;-73
2024/02/07 03:44:13;;;;;;;18.77;2.85;;;5.30;99.90;;;;;;4943909;29;20039;-72
2024/02/07 03:46:40;;;;;;;20.08;2.70;;;5.40;99.90;;;;;;4936816;29;20028;-72
2024/02/07 03:49:07;;;;;;;25.55;2.83;;;5.30;99.90;;;;;;4936846;29;20099;-71
2024/02/07 03:51:34;;;;;;;29.73;3.65;;;5.30;99.90;;;;;;4953861;28;20126;-73
2024/02/07 03:53:59;;;;;;;33.17;3.30;;;5.30;99.90;;;;;;4936457;29;20026;-72
2024/02/07 03:56:25;;;;;;;21.70;2.65;;;5.30;99.90;;;;;;4936665;28;20035;-74
2024/02/07 03:58:50;;;;;;;30.80;3.33;;;5.30;99.90;;;;;;4953628;28;20039;-72
2024/02/07 04:01:18;;;;;;;30.13;2.85;;;5.30;99.90;;;;;;4954113;28;20492;-71
2024/02/07 04:03:46;;;;;;;25.83;3.10;;;5.30;99.90;;;;;;4953681;28;20065;-72
2024/02/07 04:06:12;;;;;;;23.15;3.03;;;5.30;99.90;;;;;;4953129;28;20092;-73
2024/02/07 04:08:38;;;;;;;27.13;3.72;;;5.30;99.90;;;;;;4953520;28;20040;-74
2024/02/07 04:11:07;;;;;;;28.27;3.80;;;5.20;99.90;;;;;;4935701;29;20067;-72
2024/02/07 05:16:12;;;;;;;29.13;3.53;;;4.70;99.90;;;;;;4956826;28;20879;-72
2024/02/07 05:18:38;;;;;;;24.05;2.95;;;4.70;99.90;;;;;;4955860;28;20038;-72
2024/02/07 05:21:04;;;;;;;25.52;2.55;;;4.70;99.90;;;;;;4939256;29;20039;-74
2024/02/07 05:23:29;;;;;;;18.90;3.08;;;4.70;99.90;;;;;;4956045;28;20043;-72
2024/02/07 05:26:01;;;;;;;29.80;2.97;;;4.70;99.90;;;;;;4939472;29;20099;-74
2024/02/07 05:28:27;;;;;;;36.30;4.28;;;4.70;99.90;;;;;;4954694;28;20118;-73
2024/02/07 05:30:53;;;;;;;23.05;3.33;;;4.80;99.90;;;;;;4938579;28;20069;-75
2024/02/07 05:33:18;;;;;;;27.45;3.15;;;4.70;99.90;;;;;;4956854;28;20043;-73
2024/02/07 05:35:44;;;;;;;30.15;4.13;;;4.80;99.90;;;;;;4938282;29;21167;-74
2024/02/07 05:38:10;;;;;;;26.65;2.88;;;4.70;99.90;;;;;;4955326;28;20039;-72
2024/02/07 05:40:36;;;;;;;34.42;3.25;;;4.80;99.90;;;;;;4937215;29;20030;-74
2024/02/07 05:43:02;;;;;;;34.58;3.67;;;4.80;99.90;;;;;;4938687;29;20023;-74
2024/02/07 05:45:28;;;;;;;24.88;2.38;;;4.70;99.90;;;;;;4955121;28;20027;-75
2024/02/07 05:47:54;;;;;;;28.13;3.50;;;4.70;99.90;;;;;;4938729;28;20035;-73
2024/02/07 05:50:20;;;;;;;25.98;3.22;;;4.70;99.90;;;;;;4955471;28;20015;-75
2024/02/07 05:52:46;;;;;;;35.20;3.15;;;4.70;99.90;;;;;;4940305;29;20151;-74
2024/02/07 05:55:11;;;;;;;28.75;3.13;;;4.70;99.90;;;;;;4955696;28;20034;-74
2024/02/07 05:57:37;;;;;;;27.20;3.15;;;4.80;99.90;;;;;;4938524;29;20082;-74
2024/02/07 06:00:05;;;;;;;29.38;3.25;;;4.70;99.90;;;;;;4955858;28;20023;-74
2024/02/07 06:02:31;;;;;;;27.10;2.85;;;4.70;99.90;;;;;;4938202;29;20028;-75
2024/02/07 06:05:03;;;;;;;29.17;3.08;;;4.70;99.90;;;;;;4937974;29;20080;-73
2024/02/07 06:07:33;;;;;;;30.98;3.60;;;4.70;99.90;;;;;;4955866;28;20056;-74
2024/02/07 06:09:59;;;;;;;30.90;3.25;;;4.60;99.90;;;;;;4954886;28;20043;-74
2024/02/07 06:12:25;;;;;;;28.38;2.65;;;4.70;99.90;;;;;;4955335;29;20080;-74
2024/02/07 06:14:51;;;;;;;25.02;2.92;;;4.60;99.90;;;;;;4938638;29;20026;-73
2024/02/07 06:17:17;;;;;;;30.83;3.00;;;4.70;99.90;;;;;;4938549;29;20094;-74
2024/02/07 06:19:42;;;;;;;21.60;2.88;;;4.60;99.90;;;;;;4938020;29;20024;-75
2024/02/07 06:22:08;;;;;;;36.65;3.05;;;4.60;99.90;;;;;;4937532;29;20038;-77
2024/02/07 06:24:34;;;;;;;21.83;2.88;;;4.60;99.90;;;;;;4955128;28;20040;-76
2024/02/07 06:26:59;;;;;;;19.92;2.60;;;4.60;99.90;;;;;;4955126;28;20096;-73
2024/02/07 06:29:25;;;;;;;28.67;3.00;;;4.50;99.90;;;;;;4938381;29;20123;-74
2024/02/07 06:31:51;;;;;;;31.33;2.63;;;4.50;99.90;;;;;;4955064;29;20118;-75
2024/02/07 06:34:17;;;;;;;23.27;2.75;;;4.50;99.90;;;;;;4938074;29;20035;-75
2024/02/07 06:36:42;;;;;;;23.15;2.55;;;4.50;99.90;;;;;;4938113;29;20031;-74
2024/02/07 06:39:08;;;;;;;28.70;3.47;;;4.50;99.90;;;;;;4937827;29;20024;-73
2024/02/07 06:41:33;;;;;;;21.08;2.47;;;4.50;99.90;;;;;;4938752;28;20030;-74
2024/02/07 06:43:59;;;;;;;27.25;2.78;;;4.40;99.90;;;;;;4955231;29;20035;-74
2024/02/07 06:46:24;;;;;;;24.65;2.45;;;4.50;99.90;;;;;;4937792;29;20063;-74
2024/02/07 06:48:50;;;;;;;23.33;2.95;;;4.40;99.90;;;;;;4937772;29;20023;-75
2024/02/07 06:51:16;;;;;;;21.55;2.38;;;4.40;99.90;;;;;;4955185;28;20031;-74
2024/02/07 06:53:42;;;;;;;20.13;2.40;;;4.40;99.90;;;;;;4955051;28;20020;-73
2024/02/07 06:56:08;;;;;;;23.75;3.08;;;4.40;99.90;;;;;;4954381;28;20102;-74
2024/02/07 06:58:34;;;;;;;26.10;3.17;;;4.40;99.90;;;;;;4937879;28;20027;-75
2024/02/07 07:00:59;;;;;;;24.60;3.63;;;4.40;99.90;;;;;;4954593;28;20028;-74
2024/02/07 07:03:26;;;;;;;30.00;2.88;;;4.40;99.90;;;;;;4937020;28;20047;-75
2024/02/07 07:05:51;;;;;;;34.10;3.30;;;4.40;99.90;;;;;;4937326;29;20023;-75
2024/02/07 07:08:17;;;;;;;20.95;2.92;;;4.30;99.90;;;;;;4954347;28;20087;-75
2024/02/07 07:10:43;;;;;;;23.50;2.78;;;4.30;99.90;;;;;;4937612;28;20126;-75
2024/02/07 07:13:11;;;;;;;25.67;3.00;;;4.30;99.90;;;;;;4937436;29;20047;-75
2024/02/07 07:15:36;;;;;;;26.58;2.75;;;4.30;99.90;;;;;;4954307;28;20049;-74
2024/02/07 07:18:02;;;;;;;27.60;4.30;;;4.20;99.90;;;;;;4937363;29;20028;-74
2024/02/07 07:20:31;;;;;;;26.50;3.35;;;4.20;99.90;;;;;;4954458;28;20512;-75
2024/02/07 07:23:03;;;;;;;29.45;3.10;;;4.20;99.90;;;;;;4936612;28;20028;-74
2024/02/07 07:25:28;;;;;;;20.52;2.90;;;4.10;99.90;;;;;;4954087;28;20035;-75
2024/02/07 07:27:54;;;;;;;27.00;3.85;;;4.10;99.90;;;;;;4937164;28;20039;-75
2024/02/07 07:30:20;;;;;;;29.67;3.47;;;4.10;99.90;;;;;;4936966;28;20019;-76
2024/02/07 07:32:47;;;;;;;22.15;3.50;;;4.10;99.90;;;;;;4954662;28;20023;-73
2024/02/07 07:35:13;;;;;;;35.78;3.45;;;4.10;99.90;;;;;;4937316;29;20119;-74
2024/02/07 07:37:38;;;;;;;25.60;3.10;;;4.10;99.90;;;;;;4936783;29;20064;-74
2024/02/07 07:40:05;;;;;;;28.02;3.30;;;4.10;99.90;;;;;;4954021;29;20023;-75
2024/02/07 07:42:30;;;;;;;26.52;2.70;;;4.10;99.90;;;;;;4936890;29;20031;-75
2024/02/07 07:44:56;;;;;;;22.15;3.38;;;4.10;99.90;;;;;;4952381;28;20048;-76
2024/02/07 07:47:21;;;;;;;22.27;3.08;;;4.20;99.90;;;;;;4934907;29;20038;-75
2024/02/07 07:49:47;;;;;;;19.33;2.50;;;4.20;99.90;;;;;;4936876;29;20123;-74
2024/02/07 07:52:12;;;;;;;24.60;2.45;;;4.20;99.90;;;;;;4951078;28;20047;-75
2024/02/07 07:54:38;;;;;;;21.25;3.10;;;4.20;99.90;;;;;;4950174;28;20032;-75
2024/02/07 07:57:07;;;;;;;26.13;3.47;;;4.30;99.90;;;;;;4949671;28;20067;-74
2024/02/07 07:59:33;;;;;;;23.55;3.13;;;4.30;99.90;;;;;;4952458;28;20031;-74
2024/02/07 08:01:59;;;;;;;21.65;2.85;;;4.30;99.90;;;;;;4949949;28;20034;-74
2024/02/07 08:04:25;;;;;;;25.85;3.00;;;4.30;99.90;;;;;;4951681;28;20086;-74
2024/02/07 08:06:51;;;;;;;21.05;3.15;;;4.40;99.90;;;;;;4936516;29;20015;-76
2024/02/07 08:09:18;;;;;;;22.15;2.30;;;4.40;99.90;;;;;;4932033;29;20047;-75
2024/02/07 08:11:44;;;;;;;21.35;3.03;;;4.40;99.90;;;;;;4933463;29;20031;-75
2024/02/07 08:14:09;;;;;;;23.08;3.63;;;4.50;99.90;;;;;;4931270;29;20047;-74
2024/02/07 08:16:35;;;;;;;18.50;2.70;;;4.50;99.90;;;;;;4930078;29;20032;-74
2024/02/07 08:19:01;;;;;;;20.10;3.60;;;4.50;99.90;;;;;;4930469;29;20062;-76
2024/02/07 08:21:26;;;;;;;23.33;3.42;;;4.50;99.90;;;;;;4931161;29;20028;-74
2024/02/07 08:23:52;;;;;;;15.07;2.00;;;4.60;99.90;;;;;;4929909;29;20063;-74
2024/02/07 08:26:17;;;;;;;20.70;2.60;;;4.50;99.90;;;;;;4930003;29;20025;-75
2024/02/07 08:28:43;;;;;;;25.27;2.72;;;4.60;99.90;;;;;;4932159;29;20041;-75
2024/02/07 08:31:11;;;;;;;19.17;3.00;;;4.60;99.90;;;;;;4934252;29;20106;-75
2024/02/07 08:33:37;;;;;;;15.60;2.53;;;4.60;99.90;;;;;;4929701;29;20059;-74
2024/02/07 08:36:03;;;;;;;25.25;2.67;;;4.60;99.90;;;;;;4933164;29;20028;-74
2024/02/07 08:38:28;;;;;;;22.80;2.70;;;4.60;99.90;;;;;;4933002;29;20028;-76
2024/02/07 08:40:54;;;;;;;27.48;2.70;;;4.60;99.90;;;;;;4933282;29;20466;-74
2024/02/07 08:43:21;;;;;;;19.45;2.78;;;4.60;99.90;;;;;;4931151;29;20035;-75
2024/02/07 08:45:47;;;;;;;24.65;3.15;;;4.70;99.90;;;;;;4931716;29;20036;-76
2024/02/07 08:48:12;;;;;;;28.42;2.65;;;4.80;99.90;;;;;;4932874;29;20157;-75
2024/02/07 08:50:38;;;;;;;14.30;2.63;;;4.70;99.90;;;;;;4930750;29;20890;-74
2024/02/07 08:53:03;;;;;;;38.78;3.03;;;4.80;99.90;;;;;;4930395;29;20031;-74
2024/02/07 08:55:29;;;;;;;16.70;2.75;;;4.70;99.90;;;;;;4931494;29;20051;-75
2024/02/07 08:57:55;;;;;;;18.65;2.70;;;4.80;99.90;;;;;;4929793;29;20039;-77
2024/02/07 09:00:20;;;;;;;24.55;3.15;;;4.80;99.90;;;;;;4929896;29;20044;-74
2024/02/07 09:02:49;;;;;;;24.25;2.63;;;4.80;99.90;;;;;;4929090;29;20087;-76
2024/02/07 09:05:16;;;;;;;17.20;2.17;;;4.80;99.90;;;;;;4931998;29;20155;-74
2024/02/07 09:07:42;;;;;;;22.13;2.78;;;4.90;99.90;;;;;;4931476;29;20429;-76
2024/02/07 09:10:09;;;;;;;23.58;2.40;;;5.10;99.90;;;;;;4939641;28;20056;-75
2024/02/07 09:12:35;;;;;;;29.02;2.83;;;5.10;99.90;;;;;;4947780;28;20107;-75
2024/02/07 09:15:00;;;;;;;16.85;2.25;;;5.30;99.90;;;;;;4952690;28;20583;-75
2024/02/07 09:17:26;;;;;;;20.60;2.63;;;5.50;99.90;;;;;;4953834;29;20141;-74
2024/02/07 09:19:52;;;;;;;24.17;3.20;;;5.60;99.90;;;;;;4952152;28;20023;-75
2024/02/07 09:22:18;;;;;;;22.23;2.70;;;5.70;99.90;;;;;;4939421;29;20027;-77
2024/02/07 09:24:44;;;;;;;21.90;2.80;;;5.70;99.90;;;;;;4953523;29;20052;-75
2024/02/07 09:27:09;;;;;;;13.98;2.28;;;5.70;99.90;;;;;;4933632;28;20059;-77
2024/02/07 09:29:38;;;;;;;21.92;2.50;;;5.70;99.90;;;;;;4936472;29;20166;-76
2024/02/07 09:32:04;;;;;;;20.80;2.75;;;5.70;99.90;;;;;;4954061;28;20031;-77
2024/02/07 09:34:30;;;;;;;13.90;2.17;;;5.90;99.90;;;;;;4939092;29;20031;-77
2024/02/07 09:36:55;;;;;;;17.27;2.42;;;6.00;99.90;;;;;;4956128;28;20031;-77
2024/02/07 09:39:22;;;;;;;24.27;2.53;;;6.00;99.90;;;;;;4940593;29;20023;-76
2024/02/07 09:41:50;;;;;;;15.18;2.22;;;6.10;99.90;;;;;;4947374;28;20023;-77
2024/02/07 09:44:17;;;;;;;12.52;1.92;;;6.10;99.90;;;;;;4942599;29;20046;-77
2024/02/07 09:46:43;;;;;;;19.80;2.10;;;6.10;99.90;;;;;;4956031;28;20023;-77
2024/02/07 09:49:15;;;;;;;19.55;2.90;;;6.00;99.90;;;;;;4955257;29;20031;-74
2024/02/07 09:51:41;;;;;;;20.80;2.80;;;6.10;99.90;;;;;;4955091;28;20039;-75
2024/02/07 09:54:11;;;;;;;16.55;2.53;;;6.00;99.90;;;;;;4938820;29;20028;-76
2024/02/07 09:56:38;;;;;;;14.35;2.13;;;6.00;99.90;;;;;;4937756;29;20078;-77
2024/02/07 09:59:09;;;;;;;22.95;2.85;;;6.00;99.90;;;;;;4955824;28;20613;-78
2024/02/07 10:01:35;;;;;;;26.83;2.85;;;5.90;99.90;;;;;;4955502;28;20023;-76
2024/02/07 10:04:02;;;;;;;23.80;2.42;;;6.00;99.90;;;;;;4938644;29;20031;-75
2024/02/07 10:06:28;;;;;;;16.85;2.15;;;6.00;99.90;;;;;;4955704;28;20027;-76
2024/02/07 10:09:01;;;;;;;18.52;2.65;;;6.00;99.90;;;;;;4944695;29;20565;-77
2024/02/07 10:11:29;;;;;;;15.15;2.22;;;6.00;99.90;;;;;;4936956;29;20030;-76
2024/02/07 10:13:55;;;;;;;16.73;2.05;;;6.10;99.90;;;;;;4924165;28;20059;-78
2024/02/07 10:16:22;;;;;;;16.38;2.63;;;6.30;99.90;;;;;;4950524;28;20137;-75
2024/02/07 10:18:49;;;;;;;11.90;2.30;;;6.30;99.90;;;;;;4952187;29;20032;-76
2024/02/07 10:21:16;;;;;;;15.30;3.08;;;6.40;99.90;;;;;;4935419;29;20076;-75
2024/02/07 10:23:42;;;;;;;22.95;2.38;;;6.40;99.90;;;;;;4936585;29;20042;-75
2024/02/07 10:26:10;;;;;;;11.20;2.10;;;6.40;99.90;;;;;;4936726;28;20032;-75
2024/02/07 10:28:36;;;;;;;20.23;2.90;;;6.70;99.90;;;;;;4937868;29;20027;-75
2024/02/07 10:31:04;;;;;;;21.77;2.92;;;6.80;99.90;;;;;;4947734;29;20055;-77
2024/02/07 10:33:39;;;;;;;14.60;1.98;;;6.90;99.90;;;;;;4951006;28;20071;-76
2024/02/07 10:36:05;;;;;;;16.65;2.25;;;7.00;99.90;;;;;;4936285;29;20162;-75
2024/02/07 10:38:34;;;;;;;12.38;2.33;;;7.10;99.90;;;;;;4936212;29;20015;-75
2024/02/07 10:41:01;;;;;;;17.45;1.95;;;7.00;99.90;;;;;;4951578;28;20024;-74
2024/02/07 10:43:28;;;;;;;22.05;2.20;;;7.00;99.90;;;;;;4935714;28;20058;-75
2024/02/07 10:46:00;;;;;;;22.42;2.67;;;7.00;99.90;;;;;;4933755;29;20032;-77
2024/02/07 10:48:27;;;;;;;17.83;2.42;;;7.00;99.90;;;;;;4949139;28;20027;-76
2024/02/07 10:50:55;;;;;;;14.25;1.65;;;6.90;99.90;;;;;;4936195;29;20020;-76
2024/02/07 10:53:21;;;;;;;22.15;2.35;;;6.80;99.90;;;;;;4954449;29;20036;-76
2024/02/07 10:55:46;;;;;;;12.88;1.80;;;6.70;99.90;;;;;;4952673;28;20024;-77
2024/02/07 10:58:17;;;;;;;18.75;1.83;;;6.60;99.90;;;;;;4953104;28;20121;-76
2024/02/07 11:00:45;;;;;;;22.35;2.70;;;6.60;99.90;;;;;;4953381;28;20024;-76
2024/02/07 11:03:13;;;;;;;13.50;1.98;;;6.50;99.90;;;;;;4936112;28;20102;-75
2024/02/07 11:05:40;;;;;;;17.50;2.30;;;6.50;99.90;;;;;;4953283;28;20039;-75
2024/02/07 11:08:07;;;;;;;16.92;2.35;;;6.40;99.90;;;;;;4932464;29;20130;-74
2024/02/07 11:10:33;;;;;;;16.23;2.30;;;6.40;99.90;;;;;;4932390;29;20133;-75
2024/02/07 11:12:59;;;;;;;17.83;2.05;;;6.40;99.90;;;;;;4929756;29;20063;-74
2024/02/07 11:15:25;;;;;;;18.38;2.78;;;6.40;99.90;;;;;;4932625;29;20048;-75
2024/02/07 11:17:51;;;;;;;21.60;2.70;;;6.30;99.90;;;;;;4933277;29;20052;-76
2024/02/07 11:20:17;;;;;;;17.08;2.38;;;6.40;99.90;;;;;;4932363;29;20028;-74
2024/02/07 11:22:48;;;;;;;10.73;2.22;;;6.30;99.90;;;;;;4933007;29;20088;-75
2024/02/07 11:25:18;;;;;;;17.13;2.45;;;6.40;99.90;;;;;;4934141;29;20040;-77
2024/02/07 11:27:44;;;;;;;21.02;2.40;;;6.40;99.90;;;;;;4933078;29;20031;-77
2024/02/07 11:30:10;;;;;;;10.55;2.42;;;6.50;99.90;;;;;;4932998;29;20028;-76
2024/02/07 11:32:39;;;;;;;12.00;2.38;;;6.50;99.90;;;;;;4932755;29;20035;-76
2024/02/07 11:35:10;;;;;;;20.45;2.00;;;6.60;99.90;;;;;;4932394;29;20036;-76
2024/02/07 11:37:37;;;;;;;24.02;3.35;;;6.70;99.90;;;;;;4932657;29;20037;-76
2024/02/07 11:40:13;;;;;;;21.45;2.72;;;6.70;99.90;;;;;;4932963;29;20079;-76
2024/02/07 11:42:39;;;;;;;19.70;2.60;;;6.80;99.90;;;;;;4933618;29;20040;-76
2024/02/07 11:45:05;;;;;;;13.05;2.15;;;7.00;99.90;;;;;;4928821;29;20052;-77
2024/02/07 11:47:37;;;;;;;14.00;2.55;;;7.00;99.90;;;;;;4932320;29;20066;-77
2024/02/07 11:50:04;;;;;;;18.85;2.45;;;7.10;99.90;;;;;;4931526;29;20066;-76
2024/02/07 11:52:38;;;;;;;15.55;2.63;;;7.20;99.90;;;;;;4933017;29;20032;-74
2024/02/07 11:55:07;;;;;;;16.27;2.58;;;7.20;99.90;;;;;;4932546;29;20940;-75
2024/02/07 11:57:33;;;;;;;21.00;3.50;;;7.20;99.90;;;;;;4933182;29;20649;-76
2024/02/07 12:00:05;;;;;;;16.48;2.63;;;7.20;99.90;;;;;;4932465;29;20036;-75
2024/02/07 12:02:30;;;;;;;17.60;2.42;;;7.20;99.90;;;;;;4933532;29;20087;-75
2024/02/07 12:04:57;;;;;;;17.90;2.85;;;7.10;99.90;;;;;;4934053;29;20067;-77
2024/02/07 12:07:22;;;;;;;13.43;2.10;;;7.00;99.90;;;;;;4929584;29;20043;-76
2024/02/07 12:09:51;;;;;;;18.27;1.77;;;7.00;99.90;;;;;;4943624;29;20048;-75
2024/02/07 12:12:17;;;;;;;21.70;2.72;;;7.10;99.90;;;;;;4936231;29;20052;-77
2024/02/07 12:14:43;;;;;;;21.67;2.83;;;7.00;99.90;;;;;;4951273;28;20028;-75
2024/02/07 12:17:10;;;;;;;12.35;2.00;;;7.10;99.90;;;;;;4952213;28;20071;-77
2024/02/07 12:19:36;;;;;;;16.58;2.40;;;7.30;99.90;;;;;;4934393;29;20103;-76
2024/02/07 12:22:05;;;;;;;17.90;2.13;;;7.30;99.90;;;;;;4933309;29;20036;-75
2024/02/07 12:24:32;;;;;;;16.65;2.70;;;7.20;99.90;;;;;;4935892;29;20056;-76
2024/02/07 12:27:14;;;;;;;16.08;2.67;;;7.20;99.90;;;;;;4932185;29;20046;-77
2024/02/07 12:29:50;;;;;;;18.17;2.90;;;7.40;99.90;;;;;;4937254;29;20139;-74
2024/02/07 12:32:16;;;;;;;22.75;2.25;;;7.50;99.90;;;;;;4942243;28;20042;-77
2024/02/07 12:34:42;;;;;;;11.77;2.70;;;7.60;99.90;;;;;;4931624;29;20039;-78
2024/02/07 12:37:07;;;;;;;19.08;2.65;;;7.60;99.90;;;;;;4953286;28;20036;-77
2024/02/07 12:39:33;;;;;;;12.75;2.33;;;7.50;99.90;;;;;;4936878;28;20493;-77
2024/02/07 12:42:04;;;;;;;10.57;2.17;;;7.50;99.90;;;;;;4936845;29;20051;-77
2024/02/07 12:44:30;;;;;;;10.77;1.92;;;7.40;99.90;;;;;;4933038;28;20039;-76
2024/02/07 12:46:56;;;;;;;13.73;2.15;;;7.30;99.90;;;;;;4936413;29;20496;-75
2024/02/07 12:49:21;;;;;;;14.02;2.60;;;7.10;99.90;;;;;;4956288;28;20027;-76
2024/02/07 12:51:47;;;;;;;11.10;1.63;;;7.10;99.90;;;;;;4938237;29;20099;-76
2024/02/07 12:54:13;;;;;;;10.95;1.60;;;7.50;99.90;;;;;;4957049;28;20584;-76
2024/02/07 12:56:39;;;;;;;12.10;1.85;;;8.00;99.90;;;;;;4955911;28;20039;-77
2024/02/07 12:59:04;;;;;;;14.18;1.80;;;8.30;99.90;;;;;;4939853;29;20020;-76
2024/02/07 13:01:30;;;;;;;11.10;1.95;;;8.40;99.90;;;;;;4939552;29;20079;-76
2024/02/07 13:03:55;;;;;;;10.88;1.77;;;8.40;99.90;;;;;;4956017;29;20061;-75
2024/02/07 13:06:21;;;;;;;10.20;1.70;;;8.70;99.90;;;;;;4942216;29;20034;-77
2024/02/07 13:08:51;;;;;;;10.55;1.70;;;9.20;99.90;;;;;;4956621;28;20059;-77
2024/02/07 13:11:17;;;;;;;15.10;2.20;;;9.80;99.90;;;;;;4939860;29;20055;-77
2024/02/07 13:13:43;;;;;;;14.30;2.10;;;10.20;99.90;;;;;;4936767;29;20077;-77
2024/02/07 13:16:08;;;;;;;12.82;1.88;;;10.60;99.90;;;;;;4957178;28;20027;-78
2024/02/07 13:18:34;;;;;;;20.20;2.22;;;11.10;99.90;;;;;;4938423;29;20028;-77
2024/02/07 13:21:05;;;;;;;10.90;1.80;;;11.30;99.90;;;;;;4938275;29;20031;-77
2024/02/07 13:23:33;;;;;;;11.88;1.90;;;11.60;99.90;;;;;;4935038;29;20104;-77
2024/02/07 13:26:00;;;;;;;11.23;2.10;;;11.80;99.90;;;;;;4939194;29;20113;-78
2024/02/07 13:28:26;;;;;;;15.75;2.28;;;11.70;99.90;;;;;;4955822;28;20042;-78
2024/02/07 13:30:52;;;;;;;10.25;2.10;;;11.20;99.90;;;;;;4955815;29;20169;-79
2024/02/07 13:33:17;;;;;;;13.05;2.10;;;10.90;99.90;;;;;;4936165;29;20070;-76
2024/02/07 13:35:43;;;;;;;16.13;2.63;;;10.60;99.90;;;;;;4937452;29;20028;-76
2024/02/07 13:38:09;;;;;;;17.85;1.95;;;10.20;99.90;;;;;;4955728;28;20028;-77
2024/02/07 13:40:34;;;;;;;10.82;1.95;;;9.60;99.90;;;;;;4955059;28;20039;-78
2024/02/07 13:43:00;;;;;;;13.85;1.92;;;9.50;99.90;;;;;;4955241;28;20031;-77
2024/02/07 13:45:25;;;;;;;12.02;2.03;;;9.40;99.90;;;;;;4937032;28;20078;-75
2024/02/07 13:47:51;;;;;;;15.90;1.80;;;9.60;99.90;;;;;;4934887;28;20034;-77
2024/02/07 13:50:16;;;;;;;15.23;2.38;;;10.10;99.90;;;;;;4954890;28;20042;-77